Terminal Aerodrome Forecast
Issued by NWS Bismarck, ND

Home | Current Version | Previous Version | Text Only | Print | Product List | Glossary Off
Versions: 1 2 3 4 5 6 7 8 9 10 11 12 13 14 15 16 17 18 19 20 21

936
FTUS43 KBIS 221720
TAFBIS
TAF
KBIS 221720Z 2218/2318 15006KT P6SM SKC
     FM230100 11006KT P6SM SKC
     FM230800 34004KT P6SM SKC WS020/19040KT
     FM231400 33010KT P6SM SCT070=

USA.gov is the U.S. government's official web portal to all federal, state and local government web resources and services.